sensor_id;sensor_type;location;lat;lon;timestamp;pressure;altitude;pressure_sealevel;temperature;humidity
74310;BME280;62722;51.142;17.052;2023-03-23T00:04:40;99735.78;;;9.07;85.99
74310;BME280;62722;51.142;17.052;2023-03-23T00:07:24;99743.59;;;9.09;85.69
74310;BME280;62722;51.142;17.052;2023-03-23T00:09:59;99732.72;;;9.01;85.74
74310;BME280;62722;51.142;17.052;2023-03-23T00:12:29;99740.19;;;9.07;85.98
74310;BME280;62722;51.142;17.052;2023-03-23T00:15:00;99744.84;;;9.16;86.32
74310;BME280;62722;51.142;17.052;2023-03-23T00:17:28;99746.72;;;9.14;85.93
74310;BME280;62722;51.142;17.052;2023-03-23T00:19:55;99743.78;;;9.18;86.01
74310;BME280;62722;51.142;17.052;2023-03-23T00:22:23;99743.78;;;9.18;86.37
74310;BME280;62722;51.142;17.052;2023-03-23T00:24:55;99737.47;;;9.21;86.46
74310;BME280;62722;51.142;17.052;2023-03-23T00:27:24;99739.25;;;9.20;86.73
74310;BME280;62722;51.142;17.052;2023-03-23T00:29:51;99737.47;;;9.21;86.55
74310;BME280;62722;51.142;17.052;2023-03-23T00:32:20;99739.38;;;9.19;86.43
74310;BME280;62722;51.142;17.052;2023-03-23T00:34:52;99733.78;;;9.11;86.21
74310;BME280;62722;51.142;17.052;2023-03-23T00:37:20;99722.53;;;9.09;85.88
74310;BME280;62722;51.142;17.052;2023-03-23T00:39:50;99727.56;;;9.12;86.11
74310;BME280;62722;51.142;17.052;2023-03-23T00:42:18;99725.66;;;9.14;86.53
74310;BME280;62722;51.142;17.052;2023-03-23T00:44:46;99729.06;;;9.16;86.86
74310;BME280;62722;51.142;17.052;2023-03-23T00:47:14;99730.53;;;9.20;86.85
74310;BME280;62722;51.142;17.052;2023-03-23T00:49:43;99738.22;;;9.23;87.00
74310;BME280;62722;51.142;17.052;2023-03-23T00:52:10;99736.63;;;9.20;86.69
74310;BME280;62722;51.142;17.052;2023-03-23T00:54:37;99730.19;;;9.24;86.28
74310;BME280;62722;51.142;17.052;2023-03-23T00:57:05;99725.78;;;9.25;86.39
74310;BME280;62722;51.142;17.052;2023-03-23T00:59:32;99721.38;;;9.25;86.26
74310;BME280;62722;51.142;17.052;2023-03-23T01:02:01;99718.72;;;9.25;85.59
74310;BME280;62722;51.142;17.052;2023-03-23T01:04:29;99713.47;;;9.25;85.93
74310;BME280;62722;51.142;17.052;2023-03-23T01:06:57;99716.00;;;9.27;85.77
74310;BME280;62722;51.142;17.052;2023-03-23T01:09:26;99718.50;;;9.28;86.23
74310;BME280;62722;51.142;17.052;2023-03-23T01:11:54;99719.13;;;9.32;86.10
74310;BME280;62722;51.142;17.052;2023-03-23T01:14:22;99734.72;;;9.35;86.61
74310;BME280;62722;51.142;17.052;2023-03-23T01:16:51;99717.25;;;9.34;86.04
74310;BME280;62722;51.142;17.052;2023-03-23T01:19:20;99719.13;;;9.32;86.51
74310;BME280;62722;51.142;17.052;2023-03-23T01:21:47;99715.16;;;9.26;86.02
74310;BME280;62722;51.142;17.052;2023-03-23T01:24:14;99711.69;;;9.26;86.42
74310;BME280;62722;51.142;17.052;2023-03-23T01:26:42;99711.69;;;9.26;86.69
74310;BME280;62722;51.142;17.052;2023-03-23T01:29:09;99709.88;;;9.26;86.97
74310;BME280;62722;51.142;17.052;2023-03-23T01:31:36;99708.09;;;9.27;86.56
74310;BME280;62722;51.142;17.052;2023-03-23T01:34:04;99709.66;;;9.29;86.44
74310;BME280;62722;51.142;17.052;2023-03-23T01:36:32;99699.22;;;9.28;86.14
74310;BME280;62722;51.142;17.052;2023-03-23T01:39:01;99696.59;;;9.28;86.34
74310;BME280;62722;51.142;17.052;2023-03-23T01:41:30;99688.81;;;9.26;86.44
74310;BME280;62722;51.142;17.052;2023-03-23T01:43:59;99693.25;;;9.26;86.90
74310;BME280;62722;51.142;17.052;2023-03-23T01:46:30;99690.59;;;9.26;86.72
74310;BME280;62722;51.142;17.052;2023-03-23T01:49:01;99683.66;;;9.25;86.69
74310;BME280;62722;51.142;17.052;2023-03-23T01:51:36;99695.13;;;9.24;86.97
74310;BME280;62722;51.142;17.052;2023-03-23T01:54:06;99697.75;;;9.24;87.10
74310;BME280;62722;51.142;17.052;2023-03-23T01:56:38;99694.31;;;9.23;87.00
74310;BME280;62722;51.142;17.052;2023-03-23T01:59:11;99690.06;;;9.21;86.77
74310;BME280;62722;51.142;17.052;2023-03-23T02:01:39;99686.72;;;9.19;87.09
74310;BME280;62722;51.142;17.052;2023-03-23T02:04:12;99681.44;;;9.19;86.41
74310;BME280;62722;51.142;17.052;2023-03-23T02:06:42;99675.56;;;9.15;86.22
74310;BME280;62722;51.142;17.052;2023-03-23T02:09:10;99680.19;;;9.12;86.48
74310;BME280;62722;51.142;17.052;2023-03-23T02:11:39;99679.44;;;9.10;86.42
74310;BME280;62722;51.142;17.052;2023-03-23T02:14:06;99676.94;;;9.08;87.25
74310;BME280;62722;51.142;17.052;2023-03-23T02:16:40;99662.91;;;9.08;86.53
74310;BME280;62722;51.142;17.052;2023-03-23T02:19:30;99669.13;;;9.07;86.98
74310;BME280;62722;51.142;17.052;2023-03-23T02:25:23;99657.44;;;9.11;87.58
74310;BME280;62722;51.142;17.052;2023-03-23T02:28:24;99658.91;;;9.15;88.24
74310;BME280;62722;51.142;17.052;2023-03-23T02:31:20;99669.66;;;9.12;87.23
74310;BME280;62722;51.142;17.052;2023-03-23T02:33:54;99657.22;;;9.14;86.86
74310;BME280;62722;51.142;17.052;2023-03-23T02:36:26;99653.44;;;9.18;87.04
74310;BME280;62722;51.142;17.052;2023-03-23T02:39:01;99659.31;;;9.21;86.05
74310;BME280;62722;51.142;17.052;2023-03-23T02:41:34;99658.25;;;9.24;86.12
74310;BME280;62722;51.142;17.052;2023-03-23T02:44:05;99654.47;;;9.28;86.11
74310;BME280;62722;51.142;17.052;2023-03-23T02:46:35;99658.06;;;9.27;84.85
74310;BME280;62722;51.142;17.052;2023-03-23T02:49:07;99656.16;;;9.29;85.77
74310;BME280;62722;51.142;17.052;2023-03-23T02:51:36;99660.47;;;9.30;85.76
74310;BME280;62722;51.142;17.052;2023-03-23T02:54:06;99656.91;;;9.31;85.66
74310;BME280;62722;51.142;17.052;2023-03-23T02:56:35;99642.78;;;9.32;85.54
74310;BME280;62722;51.142;17.052;2023-03-23T02:59:02;99652.16;;;9.36;86.16
74310;BME280;62722;51.142;17.052;2023-03-23T03:01:48;99651.09;;;9.39;86.27
74310;BME280;62722;51.142;17.052;2023-03-23T03:04:22;99659.72;;;9.41;86.29
74310;BME280;62722;51.142;17.052;2023-03-23T03:07:00;99661.31;;;9.43;86.56
74310;BME280;62722;51.142;17.052;2023-03-23T03:09:33;99662.28;;;9.42;86.75
74310;BME280;62722;51.142;17.052;2023-03-23T03:12:08;99647.41;;;9.41;86.52
74310;BME280;62722;51.142;17.052;2023-03-23T03:14:44;99641.19;;;9.42;86.21
74310;BME280;62722;51.142;17.052;2023-03-23T03:17:21;99638.56;;;9.42;86.43
74310;BME280;62722;51.142;17.052;2023-03-23T03:19:56;99647.28;;;9.43;86.58
74310;BME280;62722;51.142;17.052;2023-03-23T03:22:25;99631.38;;;9.44;86.20
74310;BME280;62722;51.142;17.052;2023-03-23T03:24:56;99631.38;;;9.44;86.26
74310;BME280;62722;51.142;17.052;2023-03-23T03:27:25;99623.38;;;9.46;85.61
74310;BME280;62722;51.142;17.052;2023-03-23T03:29:56;99628.53;;;9.47;84.85
74310;BME280;62722;51.142;17.052;2023-03-23T03:32:29;99623.88;;;9.51;84.58
74310;BME280;62722;51.142;17.052;2023-03-23T03:35:01;99618.38;;;9.54;83.49
74310;BME280;62722;51.142;17.052;2023-03-23T03:37:33;99618.91;;;9.59;83.40
74310;BME280;62722;51.142;17.052;2023-03-23T03:40:05;99623.00;;;9.63;83.11
74310;BME280;62722;51.142;17.052;2023-03-23T03:42:37;99619.22;;;9.67;82.62
74310;BME280;62722;51.142;17.052;2023-03-23T03:45:09;99613.72;;;9.70;81.77
74310;BME280;62722;51.142;17.052;2023-03-23T03:47:36;99616.25;;;9.71;80.94
74310;BME280;62722;51.142;17.052;2023-03-23T03:50:06;99615.19;;;9.74;80.94
74310;BME280;62722;51.142;17.052;2023-03-23T03:52:34;99612.22;;;9.78;80.81
74310;BME280;62722;51.142;17.052;2023-03-23T03:55:04;99616.50;;;9.79;81.03
74310;BME280;62722;51.142;17.052;2023-03-23T03:57:32;99619.75;;;9.83;79.86
74310;BME280;62722;51.142;17.052;2023-03-23T04:00:00;99613.78;;;9.81;81.24
74310;BME280;62722;51.142;17.052;2023-03-23T04:02:40;99610.06;;;9.84;81.39
74310;BME280;62722;51.142;17.052;2023-03-23T04:05:10;99620.63;;;9.84;82.46
74310;BME280;62722;51.142;17.052;2023-03-23T04:07:37;99611.16;;;9.81;82.06
74310;BME280;62722;51.142;17.052;2023-03-23T04:10:07;99613.88;;;9.79;82.59
74310;BME280;62722;51.142;17.052;2023-03-23T04:12:35;99616.50;;;9.79;82.87
74310;BME280;62722;51.142;17.052;2023-03-23T04:15:04;99612.22;;;9.78;82.63
74310;BME280;62722;51.142;17.052;2023-03-23T04:17:31;99616.66;;;9.78;82.81
74310;BME280;62722;51.142;17.052;2023-03-23T04:19:59;99614.94;;;9.77;82.32
74310;BME280;62722;51.142;17.052;2023-03-23T04:22:31;99612.22;;;9.78;80.76
74310;BME280;62722;51.142;17.052;2023-03-23T04:25:00;99614.63;;;9.82;80.16
74310;BME280;62722;51.142;17.052;2023-03-23T04:27:31;99616.19;;;9.84;81.83
74310;BME280;62722;51.142;17.052;2023-03-23T04:29:59;99611.84;;;9.83;81.80
74310;BME280;62722;51.142;17.052;2023-03-23T04:32:26;99623.03;;;9.87;81.01
74310;BME280;62722;51.142;17.052;2023-03-23T04:34:57;99607.94;;;9.89;80.86
74310;BME280;62722;51.142;17.052;2023-03-23T04:37:25;99617.41;;;9.91;82.06
74310;BME280;62722;51.142;17.052;2023-03-23T04:39:56;99613.84;;;9.92;82.25
74310;BME280;62722;51.142;17.052;2023-03-23T04:42:28;99618.16;;;9.93;82.20
74310;BME280;62722;51.142;17.052;2023-03-23T04:44:56;99604.00;;;9.94;82.18
74310;BME280;62722;51.142;17.052;2023-03-23T04:47:24;99615.31;;;9.96;81.44
74310;BME280;62722;51.142;17.052;2023-03-23T04:49:55;99610.75;;;9.98;80.18
74310;BME280;62722;51.142;17.052;2023-03-23T04:52:23;99610.66;;;10.00;78.82
74310;BME280;62722;51.142;17.052;2023-03-23T04:54:51;99610.41;;;10.03;79.44
74310;BME280;62722;51.142;17.052;2023-03-23T04:57:20;99608.41;;;10.06;78.44
74310;BME280;62722;51.142;17.052;2023-03-23T04:59:48;99604.47;;;10.12;78.27
74310;BME280;62722;51.142;17.052;2023-03-23T05:02:15;99602.56;;;10.14;78.77
74310;BME280;62722;51.142;17.052;2023-03-23T05:04:43;99598.06;;;10.16;78.14
74310;BME280;62722;51.142;17.052;2023-03-23T05:07:11;99593.25;;;10.21;77.36
74310;BME280;62722;51.142;17.052;2023-03-23T05:09:38;99587.75;;;10.24;76.42
74310;BME280;62722;51.142;17.052;2023-03-23T05:12:07;99601.56;;;10.27;76.84
74310;BME280;62722;51.142;17.052;2023-03-23T05:14:40;99596.88;;;10.31;77.48
74310;BME280;62722;51.142;17.052;2023-03-23T05:17:07;99597.63;;;10.33;77.31
74310;BME280;62722;51.142;17.052;2023-03-23T05:19:35;99599.53;;;10.31;78.11
74310;BME280;62722;51.142;17.052;2023-03-23T05:22:03;99593.34;;;10.43;76.35
74310;BME280;62722;51.142;17.052;2023-03-23T05:24:31;99598.97;;;10.50;74.59
74310;BME280;62722;51.142;17.052;2023-03-23T05:26:59;99588.09;;;10.54;74.80
74310;BME280;62722;51.142;17.052;2023-03-23T05:29:28;99595.56;;;10.60;75.41
74310;BME280;62722;51.142;17.052;2023-03-23T05:31:57;99594.56;;;10.61;75.71
74310;BME280;62722;51.142;17.052;2023-03-23T05:34:25;99590.50;;;10.68;74.07
74310;BME280;62722;51.142;17.052;2023-03-23T05:36:54;99595.59;;;10.71;73.98
74310;BME280;62722;51.142;17.052;2023-03-23T05:39:23;99590.16;;;10.73;75.28
74310;BME280;62722;51.142;17.052;2023-03-23T05:41:51;99591.00;;;10.73;75.76
74310;BME280;62722;51.142;17.052;2023-03-23T05:44:18;99591.72;;;10.75;74.43
74310;BME280;62722;51.142;17.052;2023-03-23T05:46:46;99592.31;;;10.79;74.68
74310;BME280;62722;51.142;17.052;2023-03-23T05:49:16;99599.06;;;10.83;74.79
74310;BME280;62722;51.142;17.052;2023-03-23T05:51:44;99593.66;;;10.85;72.94
74310;BME280;62722;51.142;17.052;2023-03-23T05:54:12;99602.19;;;10.88;74.25
74310;BME280;62722;51.142;17.052;2023-03-23T05:56:40;99603.97;;;10.88;75.07
74310;BME280;62722;51.142;17.052;2023-03-23T05:59:07;99591.53;;;10.90;74.32
74310;BME280;62722;51.142;17.052;2023-03-23T06:01:36;99595.97;;;10.89;73.72
74310;BME280;62722;51.142;17.052;2023-03-23T06:04:04;99590.31;;;10.94;73.99
74310;BME280;62722;51.142;17.052;2023-03-23T06:06:32;99590.09;;;11.08;71.10
74310;BME280;62722;51.142;17.052;2023-03-23T06:09:00;99584.66;;;11.20;70.08
74310;BME280;62722;51.142;17.052;2023-03-23T06:11:27;99586.94;;;11.25;70.95
74310;BME280;62722;51.142;17.052;2023-03-23T06:13:54;99587.91;;;11.35;69.88
74310;BME280;62722;51.142;17.052;2023-03-23T06:16:21;99584.78;;;11.41;70.56
74310;BME280;62722;51.142;17.052;2023-03-23T06:18:50;99573.09;;;11.55;69.33
74310;BME280;62722;51.142;17.052;2023-03-23T06:21:17;99568.06;;;11.63;68.80
74310;BME280;62722;51.142;17.052;2023-03-23T06:23:47;99578.25;;;11.67;70.20
74310;BME280;62722;51.142;17.052;2023-03-23T06:26:18;99568.91;;;11.75;69.43
74310;BME280;62722;51.142;17.052;2023-03-23T06:28:46;99568.97;;;11.84;69.28
74310;BME280;62722;51.142;17.052;2023-03-23T06:31:14;99567.88;;;11.87;69.40
74310;BME280;62722;51.142;17.052;2023-03-23T06:33:43;99571.31;;;11.98;68.72
74310;BME280;62722;51.142;17.052;2023-03-23T06:36:10;99563.34;;;12.09;68.54
74310;BME280;62722;51.142;17.052;2023-03-23T06:38:38;99558.97;;;12.19;67.83
74310;BME280;62722;51.142;17.052;2023-03-23T06:41:06;99567.25;;;12.26;68.12
74310;BME280;62722;51.142;17.052;2023-03-23T06:43:34;99566.72;;;12.32;67.05
74310;BME280;62722;51.142;17.052;2023-03-23T06:46:05;99568.16;;;12.36;67.81
74310;BME280;62722;51.142;17.052;2023-03-23T06:48:32;99567.13;;;12.48;65.39
74310;BME280;62722;51.142;17.052;2023-03-23T06:50:59;99568.41;;;12.54;67.07
74310;BME280;62722;51.142;17.052;2023-03-23T06:53:28;99563.88;;;12.65;65.54
74310;BME280;62722;51.142;17.052;2023-03-23T06:55:56;99564.34;;;12.71;65.99
74310;BME280;62722;51.142;17.052;2023-03-23T06:58:25;99560.47;;;12.75;66.45
74310;BME280;62722;51.142;17.052;2023-03-23T07:00:54;99561.66;;;12.91;64.73
74310;BME280;62722;51.142;17.052;2023-03-23T07:03:22;99562.38;;;12.93;65.86
74310;BME280;62722;51.142;17.052;2023-03-23T07:05:50;99561.56;;;13.02;65.84
74310;BME280;62722;51.142;17.052;2023-03-23T07:08:17;99573.69;;;13.05;65.31
74310;BME280;62722;51.142;17.052;2023-03-23T07:10:44;99569.25;;;13.05;65.97
74310;BME280;62722;51.142;17.052;2023-03-23T07:13:12;99572.94;;;13.14;64.86
74310;BME280;62722;51.142;17.052;2023-03-23T07:15:41;99570.28;;;13.14;65.46
74310;BME280;62722;51.142;17.052;2023-03-23T07:18:08;99571.00;;;13.16;65.88
74310;BME280;62722;51.142;17.052;2023-03-23T07:20:35;99574.22;;;13.20;64.25
74310;BME280;62722;51.142;17.052;2023-03-23T07:23:03;99570.75;;;13.19;66.35
74310;BME280;62722;51.142;17.052;2023-03-23T07:25:31;99563.75;;;13.18;64.56
74310;BME280;62722;51.142;17.052;2023-03-23T07:27:59;99558.47;;;13.18;64.54
74310;BME280;62722;51.142;17.052;2023-03-23T07:30:26;99564.28;;;13.12;64.89
74310;BME280;62722;51.142;17.052;2023-03-23T07:32:57;99569.13;;;13.07;66.08
74310;BME280;62722;51.142;17.052;2023-03-23T07:35:25;99552.66;;;13.03;65.41
74310;BME280;62722;51.142;17.052;2023-03-23T07:37:52;99556.66;;;12.98;66.15
74310;BME280;62722;51.142;17.052;2023-03-23T07:40:20;99551.78;;;12.93;66.34
74310;BME280;62722;51.142;17.052;2023-03-23T07:42:52;99568.06;;;12.89;67.44
74310;BME280;62722;51.142;17.052;2023-03-23T07:45:20;99557.19;;;12.92;67.96
74310;BME280;62722;51.142;17.052;2023-03-23T07:47:47;99565.28;;;13.11;65.12
74310;BME280;62722;51.142;17.052;2023-03-23T07:50:16;99559.88;;;13.22;65.81
74310;BME280;62722;51.142;17.052;2023-03-23T07:52:47;99550.19;;;13.61;63.42
74310;BME280;62722;51.142;17.052;2023-03-23T07:55:15;99556.91;;;13.75;63.12
74310;BME280;62722;51.142;17.052;2023-03-23T07:57:44;99551.63;;;13.84;62.00
74310;BME280;62722;51.142;17.052;2023-03-23T08:00:13;99548.25;;;13.82;63.78
74310;BME280;62722;51.142;17.052;2023-03-23T08:02:45;99549.13;;;13.92;60.68
74310;BME280;62722;51.142;17.052;2023-03-23T08:05:16;99545.22;;;13.87;63.06
74310;BME280;62722;51.142;17.052;2023-03-23T08:07:44;99550.94;;;13.92;61.71
74310;BME280;62722;51.142;17.052;2023-03-23T08:10:12;99553.03;;;13.88;63.26
74310;BME280;62722;51.142;17.052;2023-03-23T08:12:42;99545.78;;;13.81;64.10
74310;BME280;62722;51.142;17.052;2023-03-23T08:15:11;99549.94;;;13.74;65.05
74310;BME280;62722;51.142;17.052;2023-03-23T08:17:40;99542.28;;;13.71;65.52
74310;BME280;62722;51.142;17.052;2023-03-23T08:20:09;99534.88;;;13.74;64.50
74310;BME280;62722;51.142;17.052;2023-03-23T08:22:41;99541.44;;;13.99;63.50
74310;BME280;62722;51.142;17.052;2023-03-23T08:25:10;99529.88;;;14.00;64.81
74310;BME280;62722;51.142;17.052;2023-03-23T08:27:38;99529.44;;;14.14;64.04
74310;BME280;62722;51.142;17.052;2023-03-23T08:30:10;99512.13;;;14.10;65.07
74310;BME280;62722;51.142;17.052;2023-03-23T08:32:38;99524.00;;;14.06;64.51
74310;BME280;62722;51.142;17.052;2023-03-23T08:35:07;99523.41;;;14.12;63.56
74310;BME280;62722;51.142;17.052;2023-03-23T08:37:35;99526.34;;;14.09;63.10
74310;BME280;62722;51.142;17.052;2023-03-23T08:40:07;99530.69;;;14.48;61.44
74310;BME280;62722;51.142;17.052;2023-03-23T08:42:36;99536.25;;;14.45;63.24
74310;BME280;62722;51.142;17.052;2023-03-23T08:45:05;99534.88;;;14.51;63.24
74310;BME280;62722;51.142;17.052;2023-03-23T08:47:33;99547.72;;;14.55;64.00
74310;BME280;62722;51.142;17.052;2023-03-23T08:50:00;99542.28;;;14.94;57.10
74310;BME280;62722;51.142;17.052;2023-03-23T08:52:28;99549.09;;;15.06;56.31
74310;BME280;62722;51.142;17.052;2023-03-23T08:54:55;99535.03;;;15.23;55.53
74310;BME280;62722;51.142;17.052;2023-03-23T08:57:25;99535.91;;;15.51;55.12
74310;BME280;62722;51.142;17.052;2023-03-23T08:59:52;99533.66;;;15.74;54.04
74310;BME280;62722;51.142;17.052;2023-03-23T09:02:23;99546.34;;;15.80;54.76
74310;BME280;62722;51.142;17.052;2023-03-23T09:04:50;99539.34;;;15.79;53.61
74310;BME280;62722;51.142;17.052;2023-03-23T09:07:18;99543.59;;;15.72;54.81
74310;BME280;62722;51.142;17.052;2023-03-23T09:09:46;99537.91;;;15.67;55.13
74310;BME280;62722;51.142;17.052;2023-03-23T09:12:14;99539.25;;;15.71;55.66
74310;BME280;62722;51.142;17.052;2023-03-23T09:14:42;99549.88;;;15.71;55.00
74310;BME280;62722;51.142;17.052;2023-03-23T09:17:10;99554.78;;;15.75;54.72
74310;BME280;62722;51.142;17.052;2023-03-23T09:19:37;99558.66;;;15.81;54.62
74310;BME280;62722;51.142;17.052;2023-03-23T09:22:06;99552.88;;;15.85;56.48
74310;BME280;62722;51.142;17.052;2023-03-23T09:24:33;99551.06;;;15.86;59.67
74310;BME280;62722;51.142;17.052;2023-03-23T09:27:01;99543.38;;;15.83;58.96
74310;BME280;62722;51.142;17.052;2023-03-23T09:29:29;99539.56;;;15.85;58.30
74310;BME280;62722;51.142;17.052;2023-03-23T09:31:58;99551.53;;;15.81;56.50
74310;BME280;62722;51.142;17.052;2023-03-23T09:34:25;99546.03;;;15.83;57.36
74310;BME280;62722;51.142;17.052;2023-03-23T09:36:55;99548.13;;;15.89;57.62
74310;BME280;62722;51.142;17.052;2023-03-23T09:39:22;99550.81;;;15.97;56.83
74310;BME280;62722;51.142;17.052;2023-03-23T09:42:02;99560.03;;;16.02;55.32
74310;BME280;62722;51.142;17.052;2023-03-23T09:44:42;99556.94;;;16.07;56.68
74310;BME280;62722;51.142;17.052;2023-03-23T09:47:17;99557.28;;;16.12;55.84
74310;BME280;62722;51.142;17.052;2023-03-23T09:49:51;99560.97;;;16.11;55.64
74310;BME280;62722;51.142;17.052;2023-03-23T09:52:21;99556.84;;;16.17;54.73
74310;BME280;62722;51.142;17.052;2023-03-23T09:54:51;99567.19;;;16.20;54.94
74310;BME280;62722;51.142;17.052;2023-03-23T09:57:24;99552.97;;;16.29;54.93
74310;BME280;62722;51.142;17.052;2023-03-23T10:00:00;99555.75;;;16.27;55.13
74310;BME280;62722;51.142;17.052;2023-03-23T10:02:36;99571.75;;;16.27;54.73
74310;BME280;62722;51.142;17.052;2023-03-23T10:05:29;99552.34;;;16.35;53.68
74310;BME280;62722;51.142;17.052;2023-03-23T10:07:59;99554.63;;;16.30;53.48
74310;BME280;62722;51.142;17.052;2023-03-23T10:10:35;99564.16;;;16.32;53.51
74310;BME280;62722;51.142;17.052;2023-03-23T10:13:09;99552.47;;;16.33;53.93
74310;BME280;62722;51.142;17.052;2023-03-23T10:15:43;99551.72;;;16.41;52.98
74310;BME280;62722;51.142;17.052;2023-03-23T10:18:17;99564.50;;;16.55;52.86
74310;BME280;62722;51.142;17.052;2023-03-23T10:20:49;99553.69;;;16.57;52.85
74310;BME280;62722;51.142;17.052;2023-03-23T10:23:53;99564.09;;;16.68;52.05
74310;BME280;62722;51.142;17.052;2023-03-23T10:26:30;99557.09;;;16.67;52.13
74310;BME280;62722;51.142;17.052;2023-03-23T10:29:07;99566.69;;;16.77;51.52
74310;BME280;62722;51.142;17.052;2023-03-23T10:31:44;99557.16;;;16.75;51.27
74310;BME280;62722;51.142;17.052;2023-03-23T10:34:18;99560.13;;;16.72;51.87
74310;BME280;62722;51.142;17.052;2023-03-23T10:36:55;99562.78;;;16.72;50.38
74310;BME280;62722;51.142;17.052;2023-03-23T10:39:27;99562.41;;;16.67;49.91
74310;BME280;62722;51.142;17.052;2023-03-23T10:41:56;99563.06;;;16.61;51.55
74310;BME280;62722;51.142;17.052;2023-03-23T10:44:28;99564.72;;;16.62;51.62
74310;BME280;62722;51.142;17.052;2023-03-23T10:46:59;99572.47;;;16.55;50.90
74310;BME280;62722;51.142;17.052;2023-03-23T10:49:33;99575.22;;;16.45;50.56
74310;BME280;62722;51.142;17.052;2023-03-23T10:52:04;99571.88;;;16.43;51.63
74310;BME280;62722;51.142;17.052;2023-03-23T10:54:36;99573.53;;;16.44;51.44
74310;BME280;62722;51.142;17.052;2023-03-23T10:57:17;99560.91;;;16.46;52.20
74310;BME280;62722;51.142;17.052;2023-03-23T10:59:48;99566.63;;;16.69;50.72
74310;BME280;62722;51.142;17.052;2023-03-23T11:02:17;99584.56;;;16.85;51.70
74310;BME280;62722;51.142;17.052;2023-03-23T11:04:55;99581.31;;;16.99;49.60
74310;BME280;62722;51.142;17.052;2023-03-23T11:07:28;99575.66;;;17.02;49.89
74310;BME280;62722;51.142;17.052;2023-03-23T11:10:03;99571.81;;;17.04;49.94
74310;BME280;62722;51.142;17.052;2023-03-23T11:12:34;99589.56;;;17.14;50.60
74310;BME280;62722;51.142;17.052;2023-03-23T11:15:22;99584.03;;;17.07;50.79
74310;BME280;62722;51.142;17.052;2023-03-23T11:17:58;99586.47;;;17.00;51.17
74310;BME280;62722;51.142;17.052;2023-03-23T11:20:32;99587.09;;;16.94;49.40
74310;BME280;62722;51.142;17.052;2023-03-23T11:23:08;99593.59;;;16.92;50.82
74310;BME280;62722;51.142;17.052;2023-03-23T11:25:52;99598.94;;;16.92;51.01
74310;BME280;62722;51.142;17.052;2023-03-23T11:28:20;99581.91;;;16.93;49.09
74310;BME280;62722;51.142;17.052;2023-03-23T11:30:48;99578.13;;;16.95;49.99
74310;BME280;62722;51.142;17.052;2023-03-23T11:33:15;99585.63;;;17.00;50.45
74310;BME280;62722;51.142;17.052;2023-03-23T11:35:45;99587.94;;;16.95;50.46
74310;BME280;62722;51.142;17.052;2023-03-23T11:38:18;99591.59;;;16.94;50.71
74310;BME280;62722;51.142;17.052;2023-03-23T11:40:48;99580.03;;;16.85;50.43
74310;BME280;62722;51.142;17.052;2023-03-23T11:43:20;99584.06;;;16.89;50.03
74310;BME280;62722;51.142;17.052;2023-03-23T11:45:50;99597.91;;;16.93;49.72
74310;BME280;62722;51.142;17.052;2023-03-23T11:48:24;99589.63;;;16.96;50.69
74310;BME280;62722;51.142;17.052;2023-03-23T11:50:58;99592.31;;;17.04;49.20
74310;BME280;62722;51.142;17.052;2023-03-23T11:53:34;99590.66;;;17.03;50.07
74310;BME280;62722;51.142;17.052;2023-03-23T11:56:11;99596.81;;;17.03;50.13
74310;BME280;62722;51.142;17.052;2023-03-23T11:58:39;99581.13;;;17.00;49.32
74310;BME280;62722;51.142;17.052;2023-03-23T12:01:15;99588.97;;;17.02;50.68
74310;BME280;62722;51.142;17.052;2023-03-23T12:04:11;99595.75;;;16.96;50.73
74310;BME280;62722;51.142;17.052;2023-03-23T12:06:51;99592.22;;;16.88;50.57
74310;BME280;62722;51.142;17.052;2023-03-23T12:09:30;99602.69;;;16.81;50.72
74310;BME280;62722;51.142;17.052;2023-03-23T12:12:09;99599.47;;;16.78;51.75
74310;BME280;62722;51.142;17.052;2023-03-23T12:14:45;99597.13;;;16.75;50.40
74310;BME280;62722;51.142;17.052;2023-03-23T12:17:23;99600.09;;;16.72;51.24
74310;BME280;62722;51.142;17.052;2023-03-23T12:20:04;99597.13;;;16.75;51.43
74310;BME280;62722;51.142;17.052;2023-03-23T12:22:45;99592.63;;;16.75;51.51
74310;BME280;62722;51.142;17.052;2023-03-23T12:25:32;99599.63;;;16.76;51.98
74310;BME280;62722;51.142;17.052;2023-03-23T12:28:10;99583.72;;;16.84;52.61
74310;BME280;62722;51.142;17.052;2023-03-23T12:30:47;99598.53;;;16.87;51.33
74310;BME280;62722;51.142;17.052;2023-03-23T12:33:27;99600.38;;;16.86;51.25
74310;BME280;62722;51.142;17.052;2023-03-23T12:36:04;99598.69;;;16.85;52.16
74310;BME280;62722;51.142;17.052;2023-03-23T12:39:09;99599.53;;;16.86;52.64
74310;BME280;62722;51.142;17.052;2023-03-23T12:41:44;99595.34;;;16.83;52.09
74310;BME280;62722;51.142;17.052;2023-03-23T12:44:18;99592.84;;;16.82;52.25
74310;BME280;62722;51.142;17.052;2023-03-23T12:46:59;99586.53;;;16.83;53.16
74310;BME280;62722;51.142;17.052;2023-03-23T12:49:34;99588.66;;;16.79;52.75
74310;BME280;62722;51.142;17.052;2023-03-23T12:52:08;99592.84;;;16.82;53.95
74310;BME280;62722;51.142;17.052;2023-03-23T12:54:44;99584.84;;;16.82;52.96
74310;BME280;62722;51.142;17.052;2023-03-23T12:57:20;99585.34;;;16.77;51.93
74310;BME280;62722;51.142;17.052;2023-03-23T12:59:53;99596.00;;;16.77;53.70
74310;BME280;62722;51.142;17.052;2023-03-23T13:02:25;99593.31;;;16.77;52.44
74310;BME280;62722;51.142;17.052;2023-03-23T13:04:58;99591.97;;;16.73;52.92
74310;BME280;62722;51.142;17.052;2023-03-23T13:07:31;99581.44;;;16.72;52.84
74310;BME280;62722;51.142;17.052;2023-03-23T13:10:05;99593.25;;;16.69;52.92
74310;BME280;62722;51.142;17.052;2023-03-23T13:12:36;99588.47;;;16.73;53.10
74310;BME280;62722;51.142;17.052;2023-03-23T13:15:17;99585.78;;;16.73;52.52
74310;BME280;62722;51.142;17.052;2023-03-23T13:17:51;99588.16;;;16.76;53.08
74310;BME280;62722;51.142;17.052;2023-03-23T13:20:48;99598.47;;;16.79;52.99